createdAt,value
2018-06-21T00:01:58.575Z,98066.70
2018-06-21T00:04:27.937Z,98063.99
2018-06-21T00:06:57.302Z,98060.34
2018-06-21T00:09:26.677Z,98063.72
2018-06-21T00:11:55.983Z,98058.25
2018-06-21T00:14:25.363Z,98060.33
2018-06-21T00:16:54.730Z,98065.02
2018-06-21T00:19:24.116Z,98058.30
2018-06-21T00:21:53.452Z,98056.50
2018-06-21T00:24:22.767Z,98052.82
2018-06-21T00:26:52.104Z,98049.87
2018-06-21T00:29:21.499Z,98050.30
2018-06-21T00:31:50.806Z,98048.53
2018-06-21T00:34:20.241Z,98043.28
2018-06-21T00:36:49.736Z,98045.70
2018-06-21T00:39:19.073Z,98045.41
2018-06-21T00:41:48.438Z,98044.75
2018-06-21T00:44:17.747Z,98036.80
2018-06-21T00:46:47.084Z,98038.77
2018-06-21T00:49:16.424Z,98037.15
2018-06-21T00:51:45.756Z,98031.22
2018-06-21T00:54:15.071Z,98027.16
2018-06-21T00:56:44.446Z,98029.30
2018-06-21T00:59:13.760Z,98028.64
2018-06-21T01:01:43.072Z,98027.27
2018-06-21T01:04:12.401Z,98031.68
2018-06-21T01:06:41.749Z,98028.07
2018-06-21T01:09:11.070Z,98031.08
2018-06-21T01:11:40.453Z,98027.97
2018-06-21T01:14:09.804Z,98025.76
2018-06-21T01:16:39.140Z,98030.88
2018-06-21T01:19:08.464Z,98022.45
2018-06-21T01:21:37.797Z,98022.91
2018-06-21T01:24:07.222Z,98020.04
2018-06-21T01:26:36.543Z,98016.45
2018-06-21T01:29:06.006Z,98013.64
2018-06-21T01:31:35.356Z,98018.00
2018-06-21T01:34:04.716Z,98012.02
2018-06-21T01:36:34.057Z,98010.95
2018-06-21T01:39:03.489Z,98011.63
2018-06-21T01:41:32.793Z,98011.69
2018-06-21T01:44:02.196Z,98002.16
2018-06-21T01:46:31.543Z,98010.61
2018-06-21T01:49:00.884Z,98004.47
2018-06-21T01:51:30.356Z,97998.31
2018-06-21T01:53:59.848Z,97998.17
2018-06-21T01:56:29.170Z,98007.14
2018-06-21T01:58:58.583Z,97999.84
2018-06-21T02:01:27.899Z,97989.55
2018-06-21T02:03:57.244Z,97986.26
2018-06-21T02:06:26.648Z,97986.16
2018-06-21T02:15:56.023Z,97977.15
2018-06-21T02:18:25.355Z,97951.30
2018-06-21T02:20:54.699Z,97951.18
2018-06-21T02:23:24.036Z,97945.81
2018-06-21T02:25:54.892Z,97937.59
2018-06-21T02:28:24.240Z,97935.22
2018-06-21T02:30:53.644Z,97929.67
2018-06-21T02:33:22.982Z,97926.97
2018-06-21T02:35:52.311Z,97923.75
2018-06-21T02:38:21.619Z,97926.40
2018-06-21T02:40:50.953Z,97921.70
2018-06-21T02:43:20.359Z,97912.92
2018-06-21T02:45:49.781Z,97916.17
2018-06-21T02:48:18.882Z,97909.64
2018-06-21T02:50:48.196Z,97908.31
2018-06-21T02:53:17.534Z,97905.59
2018-06-21T02:55:46.924Z,97904.09
2018-06-21T02:58:16.240Z,97899.84
2018-06-21T03:00:45.544Z,97904.39
2018-06-21T03:03:14.879Z,97899.09
2018-06-21T03:05:44.212Z,97895.43
2018-06-21T03:08:13.561Z,97899.77
2018-06-21T03:10:42.976Z,97891.91
2018-06-21T03:13:12.306Z,97896.94
2018-06-21T03:15:41.629Z,97885.53
2018-06-21T03:18:10.957Z,97891.55
2018-06-21T03:20:40.263Z,97887.82
2018-06-21T03:23:09.579Z,97886.31
2018-06-21T03:25:38.989Z,97888.97
2018-06-21T03:28:08.300Z,97888.88
2018-06-21T03:30:37.669Z,97888.48
2018-06-21T03:33:07.184Z,97880.75
2018-06-21T03:35:36.530Z,97873.98
2018-06-21T03:38:05.854Z,97871.22
2018-06-21T03:40:35.188Z,97862.83
2018-06-21T03:43:04.504Z,97866.30
2018-06-21T03:45:33.831Z,97867.91
2018-06-21T03:48:03.163Z,97870.59
2018-06-21T03:50:32.489Z,97863.80
2018-06-21T03:53:01.865Z,97865.72
2018-06-21T03:55:31.200Z,97859.16
2018-06-21T03:58:00.508Z,97864.12
2018-06-21T04:00:29.860Z,97858.95
2018-06-21T04:02:59.220Z,97863.34
2018-06-21T04:05:28.651Z,97858.53
2018-06-21T04:07:57.907Z,97851.48
2018-06-21T04:10:27.273Z,97846.05
2018-06-21T04:12:56.685Z,97850.08
2018-06-21T04:15:26.047Z,97853.08
2018-06-21T04:17:55.406Z,97859.14
2018-06-21T04:20:24.809Z,97856.73
2018-06-21T04:22:54.349Z,97852.52
2018-06-21T04:25:23.682Z,97850.22
2018-06-21T04:27:53.007Z,97845.50
2018-06-21T04:30:22.339Z,97844.72
2018-06-21T04:32:51.704Z,97845.98
2018-06-21T04:35:21.020Z,97844.88
2018-06-21T04:37:50.382Z,97851.35
2018-06-21T04:40:19.767Z,97851.19
2018-06-21T04:42:49.164Z,97855.55
2018-06-21T04:45:18.500Z,97856.95
2018-06-21T04:47:47.844Z,97856.66
2018-06-21T04:50:17.173Z,97853.22
2018-06-21T04:52:46.518Z,97855.55
2018-06-21T04:55:15.836Z,97856.13
2018-06-21T04:57:45.163Z,97853.03
2018-06-21T05:00:14.563Z,97854.14
2018-06-21T05:02:43.998Z,97853.48
2018-06-21T05:05:13.367Z,97844.69
2018-06-21T05:07:42.685Z,97851.84
2018-06-21T05:10:12.064Z,97852.22
2018-06-21T05:12:41.460Z,97857.36
2018-06-21T05:15:10.795Z,97848.84
2018-06-21T05:17:40.168Z,97850.13
2018-06-21T05:20:09.483Z,97845.41
2018-06-21T05:22:38.931Z,97846.80
2018-06-21T05:25:08.293Z,97841.80
2018-06-21T05:27:37.601Z,97847.26
2018-06-21T05:30:06.963Z,97842.61
2018-06-21T05:32:36.088Z,97841.25
2018-06-21T05:35:05.473Z,97842.20
2018-06-21T05:37:35.017Z,97831.53
2018-06-21T05:40:04.444Z,97825.69
2018-06-21T05:42:33.798Z,97821.45
2018-06-21T05:45:03.120Z,97821.48
2018-06-21T05:47:32.453Z,97823.45
2018-06-21T05:50:01.804Z,97821.14
2018-06-21T05:52:31.149Z,97826.44
2018-06-21T05:55:00.472Z,97818.45
2018-06-21T05:57:29.800Z,97815.82
2018-06-21T05:59:59.132Z,97803.75
2018-06-21T06:02:28.440Z,97787.11
2018-06-21T06:04:57.764Z,97790.24
2018-06-21T06:07:27.109Z,97784.57
2018-06-21T06:09:56.463Z,97783.42
2018-06-21T06:12:25.780Z,97778.56
2018-06-21T06:14:55.136Z,97775.73
2018-06-21T06:17:24.460Z,97780.38
2018-06-21T06:19:53.768Z,97775.46
2018-06-21T06:22:23.106Z,97767.30
2018-06-21T06:24:52.444Z,97764.50
2018-06-21T06:27:21.752Z,97769.95
2018-06-21T06:29:51.093Z,97766.89
2018-06-21T06:32:20.484Z,97760.18
2018-06-21T06:34:49.803Z,97751.92
2018-06-21T06:37:19.141Z,97755.73
2018-06-21T06:39:48.457Z,97755.15
2018-06-21T06:42:17.768Z,97753.92
2018-06-21T06:44:47.107Z,97747.53
2018-06-21T06:47:16.544Z,97749.52
2018-06-21T06:49:45.848Z,97742.03
2018-06-21T06:52:15.207Z,97748.39
2018-06-21T06:54:44.676Z,97752.22
2018-06-21T06:57:13.896Z,97735.81
2018-06-21T06:59:43.232Z,97740.63
2018-06-21T07:02:12.552Z,97735.53
2018-06-21T07:04:41.956Z,97736.83
2018-06-21T07:07:11.308Z,97732.52
2018-06-21T07:09:40.662Z,97728.97
2018-06-21T07:12:10.018Z,97732.03
2018-06-21T07:14:39.372Z,97730.52
2018-06-21T07:17:08.691Z,97718.26
2018-06-21T07:19:39.289Z,97718.50
2018-06-21T07:22:08.636Z,97735.68
2018-06-21T07:24:37.969Z,97736.06
2018-06-21T07:27:07.347Z,97748.31
2018-06-21T07:29:36.634Z,97746.09
2018-06-21T07:32:05.971Z,97759.02
2018-06-21T07:34:35.314Z,97765.27
2018-06-21T07:37:04.713Z,97754.92
2018-06-21T07:39:34.040Z,97757.84
2018-06-21T07:42:03.392Z,97759.05
2018-06-21T07:44:32.718Z,97757.81
2018-06-21T07:47:02.110Z,97768.81
2018-06-21T07:49:31.508Z,97751.87
2018-06-21T07:52:00.817Z,97743.93
2018-06-21T07:54:30.189Z,97748.84
2018-06-21T07:56:59.538Z,97760.03
2018-06-21T07:59:28.893Z,97760.75
2018-06-21T08:01:58.225Z,97755.58
2018-06-21T08:04:27.603Z,97764.25
2018-06-21T08:06:56.922Z,97769.23
2018-06-21T08:09:26.299Z,97775.21
2018-06-21T08:11:55.620Z,97785.05
2018-06-21T08:14:24.945Z,97788.99
2018-06-21T08:16:54.324Z,97792.97
2018-06-21T08:19:23.661Z,97800.47
2018-06-21T08:21:52.961Z,97806.06
2018-06-21T08:24:22.339Z,97813.81
2018-06-21T08:26:51.699Z,97816.08
2018-06-21T08:29:20.960Z,97824.84
2018-06-21T08:31:50.300Z,97828.91
2018-06-21T08:34:19.621Z,97834.75
2018-06-21T08:36:49.197Z,97846.63
2018-06-21T08:39:18.539Z,97841.63
2018-06-21T08:41:47.860Z,97850.33
2018-06-21T08:44:17.180Z,97856.17
2018-06-21T08:46:46.536Z,97858.06
2018-06-21T08:49:15.872Z,97858.45
2018-06-21T08:51:45.204Z,97863.89
2018-06-21T08:54:14.568Z,97859.56
2018-06-21T08:56:43.976Z,97862.09
2018-06-21T08:59:13.340Z,97882.84
2018-06-21T09:01:42.704Z,97884.84
2018-06-21T09:04:12.037Z,97889.03
2018-06-21T09:06:41.362Z,97901.45
2018-06-21T09:09:10.982Z,97903.80
2018-06-21T09:11:40.332Z,97902.50
2018-06-21T09:14:09.694Z,97907.77
2018-06-21T09:16:39.016Z,97918.64
2018-06-21T09:19:08.352Z,97915.85
2018-06-21T09:21:37.664Z,97913.14
2018-06-21T09:24:07.046Z,97915.63
2018-06-21T09:26:36.403Z,97928.72
2018-06-21T09:29:06.195Z,97930.00
2018-06-21T09:31:35.543Z,97938.14
2018-06-21T09:34:04.908Z,97941.17
2018-06-21T09:36:37.440Z,97937.64
2018-06-21T09:39:15.169Z,97938.34
2018-06-21T09:41:50.188Z,97931.68
2018-06-21T09:44:24.879Z,97933.52
2018-06-21T09:46:59.584Z,97943.79
2018-06-21T09:49:30.828Z,97942.83
2018-06-21T09:52:02.775Z,97947.80
2018-06-21T09:54:32.562Z,97942.34
2018-06-21T09:57:01.923Z,97937.28
2018-06-21T09:59:31.905Z,97936.23
2018-06-21T10:02:01.253Z,97939.24
2018-06-21T10:04:30.572Z,97938.45
2018-06-21T10:06:59.942Z,97946.91
2018-06-21T10:09:29.323Z,97931.70
2018-06-21T10:11:58.703Z,97938.23
2018-06-21T10:14:28.049Z,97941.56
2018-06-21T10:17:00.352Z,97941.10
2018-06-21T10:19:29.700Z,97931.46
2018-06-21T10:21:59.041Z,97934.97
2018-06-21T10:24:28.437Z,97940.44
2018-06-21T10:26:57.783Z,97942.87
2018-06-21T10:29:27.141Z,97968.26
2018-06-21T10:31:56.500Z,97949.78
2018-06-21T10:34:25.836Z,97971.59
2018-06-21T10:36:55.172Z,97964.38
2018-06-21T10:39:24.517Z,97973.78
2018-06-21T10:41:53.896Z,97962.11
2018-06-21T10:44:23.223Z,97965.53
2018-06-21T10:46:52.536Z,97982.52
2018-06-21T10:49:21.917Z,97973.92
2018-06-21T10:51:51.232Z,97979.98
2018-06-21T10:54:20.563Z,97963.16
2018-06-21T10:56:49.984Z,97954.70
2018-06-21T10:59:19.292Z,97952.97
2018-06-21T11:01:48.624Z,97975.27
2018-06-21T11:04:17.952Z,97978.31
2018-06-21T11:06:47.538Z,97981.19
2018-06-21T11:09:16.872Z,97978.69
2018-06-21T11:11:46.247Z,97984.56
2018-06-21T11:14:15.576Z,97982.29
2018-06-21T11:16:44.939Z,97971.29
2018-06-21T11:19:14.300Z,97986.39
2018-06-21T11:21:43.634Z,97998.97
2018-06-21T11:24:12.964Z,98002.20
2018-06-21T11:26:42.326Z,98005.25
2018-06-21T11:29:11.648Z,98001.97
2018-06-21T11:31:40.984Z,98012.08
2018-06-21T11:34:10.322Z,98016.72
2018-06-21T11:36:39.649Z,98013.86
2018-06-21T11:39:10.374Z,98010.78
2018-06-21T11:41:39.683Z,98011.01
2018-06-21T11:44:09.020Z,98012.49
2018-06-21T11:46:38.416Z,98048.62
2018-06-21T11:49:07.704Z,98047.39
2018-06-21T11:51:37.053Z,98038.70
2018-06-21T11:54:06.400Z,98037.39
2018-06-21T11:56:35.727Z,98055.55
2018-06-21T11:59:05.361Z,98046.99
2018-06-21T12:01:34.856Z,98047.83
2018-06-21T12:04:04.195Z,98034.65
2018-06-21T12:06:33.527Z,98043.33
2018-06-21T12:09:02.878Z,98065.94
2018-06-21T12:11:32.249Z,98069.53
2018-06-21T12:14:01.642Z,98044.63
2018-06-21T12:16:30.906Z,98040.30
2018-06-21T12:19:00.287Z,98034.05
2018-06-21T12:21:29.621Z,98049.09
2018-06-21T12:23:58.932Z,98056.86
2018-06-21T12:26:28.348Z,98083.62
2018-06-21T12:28:57.629Z,98058.75
2018-06-21T12:31:26.962Z,98056.25
2018-06-21T12:33:56.384Z,98059.17
2018-06-21T12:36:25.749Z,98079.47
2018-06-21T12:38:55.176Z,98070.77
2018-06-21T12:41:24.506Z,98070.93
2018-06-21T12:43:53.876Z,98075.18
2018-06-21T12:46:23.213Z,98080.63
2018-06-21T12:48:55.543Z,98089.84
2018-06-21T12:51:24.843Z,98089.19
2018-06-21T12:53:54.180Z,98101.16
2018-06-21T12:56:23.502Z,98091.95
2018-06-21T12:58:52.867Z,98082.48
2018-06-21T13:01:22.216Z,98083.45
2018-06-21T13:03:51.557Z,98072.97
2018-06-21T13:06:20.920Z,98088.20
2018-06-21T13:09:07.320Z,98095.64
2018-06-21T13:12:52.863Z,98101.36
2018-06-21T13:15:22.305Z,98094.80
2018-06-21T13:17:51.576Z,98107.28
2018-06-21T13:20:20.925Z,98107.38
2018-06-21T13:22:50.252Z,98093.22
2018-06-21T13:26:55.444Z,98102.83
2018-06-21T13:29:24.815Z,98116.56
2018-06-21T13:31:54.140Z,98117.14
2018-06-21T13:34:23.503Z,98110.45
2018-06-21T13:36:52.882Z,98132.68
2018-06-21T13:39:22.191Z,98123.05
2018-06-21T13:41:51.490Z,98136.06
2018-06-21T13:44:21.164Z,98133.80
2018-06-21T13:46:50.497Z,98119.23
2018-06-21T13:49:19.804Z,98137.94
2018-06-21T13:51:49.225Z,98129.34
2018-06-21T13:54:18.553Z,98140.72
2018-06-21T13:56:48.459Z,98133.84
2018-06-21T13:59:18.758Z,98147.38
2018-06-21T14:01:48.616Z,98162.72
2018-06-21T14:04:17.952Z,98159.34
2018-06-21T14:06:47.428Z,98170.63
2018-06-21T14:09:16.851Z,98164.33
2018-06-21T14:11:46.180Z,98177.42
2018-06-21T14:14:15.528Z,98162.98
2018-06-21T14:16:44.864Z,98171.44
2018-06-21T14:19:14.224Z,98179.44
2018-06-21T14:21:43.542Z,98174.90
2018-06-21T14:24:14.139Z,98174.91
2018-06-21T14:26:43.803Z,98177.45
2018-06-21T14:29:13.124Z,98178.78
2018-06-21T14:31:42.466Z,98183.27
2018-06-21T14:34:11.816Z,98178.98
2018-06-21T14:36:41.128Z,98170.63
2018-06-21T14:39:10.532Z,98187.47
2018-06-21T14:41:39.881Z,98129.05
2018-06-21T14:44:09.274Z,98192.72
2018-06-21T14:46:38.667Z,98191.27
2018-06-21T14:49:07.999Z,98187.82
2018-06-21T14:51:37.371Z,98189.36
2018-06-21T14:54:06.723Z,98192.17
2018-06-21T14:56:36.063Z,98191.20
2018-06-21T14:59:05.429Z,98213.59
2018-06-21T15:01:34.790Z,98216.80
2018-06-21T15:04:04.177Z,98212.29
2018-06-21T15:06:33.529Z,98210.73
2018-06-21T15:09:03.041Z,98227.22
2018-06-21T15:11:32.298Z,98228.72
2018-06-21T15:14:01.669Z,98230.48
2018-06-21T15:16:31.016Z,98229.11
2018-06-21T15:19:00.333Z,98225.78
2018-06-21T15:21:29.678Z,98225.25
2018-06-21T15:23:59.040Z,98231.56
2018-06-21T15:26:28.448Z,98236.38
2018-06-21T15:28:57.849Z,98243.86
2018-06-21T15:31:27.155Z,98233.63
2018-06-21T15:33:56.477Z,98246.56
2018-06-21T15:36:25.852Z,98244.92
2018-06-21T15:38:57.761Z,98261.48
2018-06-21T15:41:29.568Z,98267.35
2018-06-21T15:43:58.957Z,98259.02
2018-06-21T15:46:28.300Z,98267.04
2018-06-21T15:48:57.641Z,98270.91
2018-06-21T15:51:26.991Z,98281.94
2018-06-21T15:53:56.269Z,98287.83
2018-06-21T15:56:25.812Z,98284.55
2018-06-21T15:58:55.463Z,98286.52
2018-06-21T16:01:25.119Z,98295.14
2018-06-21T16:03:54.768Z,98299.51
2018-06-21T16:06:24.382Z,98299.49
2018-06-21T16:08:53.998Z,98320.67
2018-06-21T16:11:23.621Z,98298.81
2018-06-21T16:13:53.301Z,98316.73
2018-06-21T16:16:22.951Z,98303.73
2018-06-21T16:18:52.611Z,98310.86
2018-06-21T16:21:22.217Z,98305.43
2018-06-21T16:23:52.182Z,98311.34
2018-06-21T16:26:21.532Z,98307.14
2018-06-21T16:28:50.880Z,98318.73
2018-06-21T16:31:20.220Z,98312.03
2018-06-21T16:33:49.560Z,98307.67
2018-06-21T16:36:18.896Z,98316.63
2018-06-21T16:38:48.256Z,98324.61
2018-06-21T16:41:17.603Z,98320.20
2018-06-21T16:43:46.953Z,98331.84
2018-06-21T16:46:16.289Z,98327.38
2018-06-21T16:48:45.846Z,98328.17
2018-06-21T16:51:15.178Z,98329.16
2018-06-21T16:53:44.527Z,98341.24
2018-06-21T16:56:13.892Z,98339.96
2018-06-21T16:58:43.204Z,98340.05
2018-06-21T17:01:12.564Z,98341.09
2018-06-21T17:03:45.727Z,98340.87
2018-06-21T17:06:15.109Z,98346.98
2018-06-21T17:08:44.427Z,98337.76
2018-06-21T17:11:13.851Z,98343.04
2018-06-21T17:13:43.204Z,98346.89
2018-06-21T17:16:12.508Z,98343.64
2018-06-21T17:18:41.897Z,98344.05
2018-06-21T17:21:11.372Z,98347.06
2018-06-21T17:23:40.765Z,98373.98
2018-06-21T17:26:10.112Z,98358.78
2018-06-21T17:28:39.480Z,98374.80
2018-06-21T17:31:08.822Z,98368.52
2018-06-21T17:33:38.199Z,98374.03
2018-06-21T17:36:07.627Z,98366.93
2018-06-21T17:38:36.945Z,98371.14
2018-06-21T17:41:06.375Z,98373.69
2018-06-21T17:43:35.729Z,98379.55
2018-06-21T17:46:05.112Z,98374.70
2018-06-21T17:48:34.431Z,98378.21
2018-06-21T17:51:03.768Z,98380.45
2018-06-21T17:53:33.136Z,98379.53
2018-06-21T17:56:03.718Z,98379.42
2018-06-21T17:58:33.052Z,98393.38
2018-06-21T18:01:03.509Z,98399.05
2018-06-21T18:03:32.828Z,98401.88
2018-06-21T18:06:02.234Z,98399.56
2018-06-21T18:08:31.671Z,98411.27
2018-06-21T18:11:01.033Z,98413.44
2018-06-21T18:13:30.386Z,98414.84
2018-06-21T18:15:59.717Z,98416.50
2018-06-21T18:18:29.033Z,98409.83
2018-06-21T18:20:58.362Z,98336.33
2018-06-21T18:23:27.716Z,98416.20
2018-06-21T18:25:57.034Z,98424.30
2018-06-21T18:28:26.406Z,98417.45
2018-06-21T18:30:55.845Z,98426.05
2018-06-21T18:33:25.212Z,98426.84
2018-06-21T18:35:54.620Z,98419.59
2018-06-21T18:38:23.968Z,98423.84
2018-06-21T18:40:53.312Z,98424.97
2018-06-21T18:43:22.652Z,98425.95
2018-06-21T18:45:52.090Z,98426.11
2018-06-21T18:48:21.720Z,98430.84
2018-06-21T18:50:51.221Z,98441.77
2018-06-21T18:53:20.256Z,98435.66
2018-06-21T18:55:49.714Z,98447.98
2018-06-21T18:58:19.289Z,98448.50
2018-06-21T19:00:49.216Z,98444.66
2018-06-21T19:03:18.962Z,98441.14
2018-06-21T19:05:50.246Z,98444.95
2018-06-21T19:08:24.805Z,98453.70
2018-06-21T19:10:59.323Z,98465.16
2018-06-21T19:13:28.810Z,98453.39
2018-06-21T19:15:58.233Z,98469.37
2018-06-21T19:18:27.609Z,98469.12
2018-06-21T19:20:57.074Z,98469.46
2018-06-21T19:23:26.437Z,98476.58
2018-06-21T19:25:55.885Z,98473.70
2018-06-21T19:28:25.279Z,98468.95
2018-06-21T19:30:54.612Z,98476.14
2018-06-21T19:33:24.023Z,98478.14
2018-06-21T19:35:53.411Z,98479.08
2018-06-21T19:38:22.896Z,98485.83
2018-06-21T19:40:52.272Z,98488.12
2018-06-21T19:43:21.905Z,98494.85
2018-06-21T19:45:51.454Z,98504.22
2018-06-21T19:48:20.575Z,98504.19
2018-06-21T19:50:50.245Z,98504.98
2018-06-21T19:53:20.433Z,98503.58
2018-06-21T19:55:51.057Z,98508.41
2018-06-21T19:58:20.569Z,98510.17
2018-06-21T20:00:50.380Z,98517.81
2018-06-21T20:03:20.969Z,98527.02
2018-06-21T20:05:50.825Z,98533.73
2018-06-21T20:08:20.623Z,98556.61
2018-06-21T20:10:56.185Z,98562.63
2018-06-21T20:13:25.672Z,98586.23
2018-06-21T20:15:55.318Z,98597.02
2018-06-21T20:18:24.735Z,98587.59
2018-06-21T20:20:54.192Z,98585.87
2018-06-21T20:23:23.512Z,98570.91
2018-06-21T20:25:52.922Z,98570.48
2018-06-21T20:28:22.353Z,98569.19
2018-06-21T20:30:51.733Z,98564.92
2018-06-21T20:33:21.096Z,98568.75
2018-06-21T20:35:50.443Z,98567.41
2018-06-21T20:38:19.924Z,98566.58
2018-06-21T20:40:49.264Z,98564.37
2018-06-21T20:43:18.588Z,98563.95
2018-06-21T20:45:47.941Z,98561.81
2018-06-21T20:48:17.292Z,98565.28
2018-06-21T20:50:46.618Z,98565.71
2018-06-21T20:53:15.939Z,98568.30
2018-06-21T20:55:45.330Z,98573.38
2018-06-21T20:58:14.648Z,98577.68
2018-06-21T21:00:43.976Z,98578.61
2018-06-21T21:03:13.287Z,98579.03
2018-06-21T21:05:42.656Z,98579.48
2018-06-21T21:08:12.214Z,98576.05
2018-06-21T21:10:41.833Z,98579.90
2018-06-21T21:13:11.479Z,98583.34
2018-06-21T21:15:41.159Z,98578.63
2018-06-21T21:18:10.750Z,98589.73
2018-06-21T21:20:40.396Z,98592.74
2018-06-21T21:23:10.071Z,98587.16
2018-06-21T21:25:39.639Z,98591.02
2018-06-21T21:28:09.301Z,98593.14
2018-06-21T21:30:38.961Z,98602.15
2018-06-21T21:33:08.693Z,98608.13
2018-06-21T21:35:38.387Z,98608.98
2018-06-21T21:38:07.908Z,98611.56
2018-06-21T21:40:37.543Z,98600.44
2018-06-21T21:43:07.228Z,98597.87
2018-06-21T21:45:36.843Z,98598.30
2018-06-21T21:48:06.479Z,98596.16
2018-06-21T21:50:36.082Z,98594.02
2018-06-21T21:53:05.792Z,98596.14
2018-06-21T21:55:36.339Z,98588.01
2018-06-21T21:58:06.028Z,98589.30
2018-06-21T22:00:44.940Z,98590.17
2018-06-21T22:03:14.655Z,98592.28
2018-06-21T22:05:44.777Z,98596.14
2018-06-21T22:08:14.415Z,98598.28
2018-06-21T22:10:45.119Z,98591.02
2018-06-21T22:13:15.314Z,98594.03
2018-06-21T22:15:44.921Z,98596.57
2018-06-21T22:18:14.567Z,98596.13
2018-06-21T22:20:44.229Z,98589.73
2018-06-21T22:23:13.898Z,98593.58
2018-06-21T22:25:43.600Z,98586.76
2018-06-21T22:28:13.189Z,98589.30
2018-06-21T22:30:42.831Z,98586.29
2018-06-21T22:33:12.397Z,98584.59
2018-06-21T22:35:42.037Z,98585.00
2018-06-21T22:38:11.644Z,98587.57
2018-06-21T22:40:41.262Z,98583.28
2018-06-21T22:43:10.905Z,98590.98
2018-06-21T22:45:40.500Z,98580.75
2018-06-21T22:48:10.084Z,98575.59
2018-06-21T22:50:39.847Z,98576.05
2018-06-21T22:53:09.473Z,98576.48
2018-06-21T22:55:39.006Z,98578.64
2018-06-21T22:58:08.755Z,98580.75
2018-06-21T23:00:38.371Z,98582.05
2018-06-21T23:03:08.066Z,98576.92
2018-06-21T23:05:37.378Z,98581.18
2018-06-21T23:08:06.715Z,98576.92
2018-06-21T23:10:36.048Z,98575.64
2018-06-21T23:13:05.383Z,98573.51
2018-06-21T23:15:34.728Z,98567.50
2018-06-21T23:18:04.104Z,98568.77
2018-06-21T23:20:33.425Z,98572.62
2018-06-21T23:23:02.854Z,98567.48
2018-06-21T23:25:32.209Z,98577.79
2018-06-21T23:28:01.544Z,98582.05
2018-06-21T23:30:30.852Z,98573.47
2018-06-21T23:33:00.206Z,98590.61
2018-06-21T23:35:29.549Z,98585.48
2018-06-21T23:37:58.870Z,98583.76
2018-06-21T23:40:28.279Z,98577.77
2018-06-21T23:42:57.600Z,98574.34
2018-06-21T23:45:26.960Z,98574.36
2018-06-21T23:47:56.280Z,98576.50
2018-06-21T23:50:25.613Z,98582.46
2018-06-21T23:52:55.028Z,98581.61
2018-06-21T23:55:24.336Z,98580.33
2018-06-21T23:57:53.660Z,98586.31
